ABE weather

Lehigh Valley International Airport
Allentown, Pennsylvania, United States

Public forecast

Using degrees Fahrenheit for public forecast. Weather courtesy of forecast.io.

METAR (pilot weather report)

Retrieved 2019/07/23 03:24 UTC (34 minutes ago):

KABE 230324Z 24004KT 10SM -RA FEW010 BKN014 OVC070 23/21 A2978

TAF (pilot weather forecast)

Forecast is more than 12 hours old.

Retrieved 2019/07/22 00:36 UTC (1 day ago):

TAF KABE 222334Z 2300/2324 VRB04KT 6SM -SHRA OVC035 FM230200 VRB03KT P6SM SHRA OVC025 FM231000 35006KT 6SM BR OVC020 FM231700 35005KT P6SM BKN025 FM231900 VRB04KT P6SM BKN035